Time;durP1;ratioP1;P1;durP2;ratioP2;P2;SDS_P1;SDS_P2;PMS_P1;PMS_P2;Temp;Humidity;BMP_temperature;BMP_pressure;BME280_temperature;BME280_humidity;BME280_pressure;Samples;Min_cycle;Max_cycle;Signal;HPM_P1;HPM_P2
2022/12/19 00:01:49;;;;;;;;;;;5.40;77.40;;;;;;5043185;28;88162;-40
2022/12/19 00:04:18;;;;;;;;;;;5.40;77.30;;;;;;5043838;28;86400;-40
2022/12/19 00:06:44;;;;;;;;;;;5.40;77.30;;;;;;5043059;28;88095;-40
2022/12/19 00:09:11;;;;;;;;;;;5.40;77.40;;;;;;5043146;28;88038;-40
2022/12/19 00:11:37;;;;;;;;;;;5.30;77.40;;;;;;5045769;28;88441;-40
2022/12/19 00:14:03;;;;;;;;;;;5.30;77.20;;;;;;5042887;28;88442;-40
2022/12/19 00:16:29;;;;;;;;;;;5.30;77.40;;;;;;5043370;28;87245;-40
2022/12/19 00:18:55;;;;;;;;;;;5.30;77.40;;;;;;5043488;28;87300;-40
2022/12/19 00:21:21;;;;;;;;;;;5.30;77.30;;;;;;5041737;28;87170;-40
2022/12/19 00:23:47;;;;;;;;;;;5.30;77.30;;;;;;5043362;28;87153;-40
2022/12/19 00:26:14;;;;;;;;;;;5.30;77.30;;;;;;5043404;28;87373;-40
2022/12/19 00:28:41;;;;;;;;;;;5.30;77.20;;;;;;5043461;28;87113;-40
2022/12/19 00:31:06;;;;;;;;;;;5.30;77.20;;;;;;5042967;28;87102;-40
2022/12/19 00:33:32;;;;;;;;;;;5.20;77.30;;;;;;5045839;28;87475;-40
2022/12/19 00:35:58;;;;;;;;;;;5.20;77.30;;;;;;5042405;28;88040;-40
2022/12/19 00:38:24;;;;;;;;;;;5.20;77.20;;;;;;5043039;28;87825;-40
2022/12/19 00:40:49;;;;;;;;;;;5.20;77.20;;;;;;5042155;28;89414;-40
2022/12/19 00:43:15;;;;;;;;;;;5.20;77.20;;;;;;5043004;28;87133;-40
2022/12/19 00:45:40;;;;;;;;;;;5.20;77.20;;;;;;5042912;28;87225;-40
2022/12/19 00:48:06;;;;;;;;;;;5.20;77.30;;;;;;5042398;28;87288;-40
2022/12/19 00:50:31;;;;;;;;;;;5.20;77.10;;;;;;5042960;28;87047;-40
2022/12/19 00:52:57;;;;;;;;;;;5.10;77.30;;;;;;5046010;28;87227;-40
2022/12/19 00:55:22;;;;;;;;;;;5.10;77.20;;;;;;5042888;28;87142;-40
2022/12/19 00:57:48;;;;;;;;;;;5.10;77.30;;;;;;5042751;28;87417;-40
2022/12/19 01:00:14;;;;;;;;;;;5.10;77.10;;;;;;5041516;28;89140;-40
2022/12/19 01:02:39;;;;;;;;;;;5.10;77.30;;;;;;5042769;28;87134;-40
2022/12/19 01:05:05;;;;;;;;;;;5.10;77.30;;;;;;5042721;28;86969;-40
2022/12/19 01:07:30;;;;;;;;;;;5.00;77.20;;;;;;5042121;28;87244;-40
2022/12/19 01:09:56;;;;;;;;;;;5.10;77.20;;;;;;5042669;28;87048;-40
2022/12/19 01:15:05;;;;;;;;;;;5.00;77.30;;;;;;5045343;28;87018;-40
2022/12/19 01:17:33;;;;;;;;;;;5.00;77.20;;;;;;5043021;28;87472;-40
2022/12/19 01:19:59;;;;;;;;;;;5.00;77.10;;;;;;5041736;28;89758;-40
2022/12/19 01:22:24;;;;;;;;;;;5.00;77.20;;;;;;5042556;28;87144;-40
2022/12/19 01:24:50;;;;;;;;;;;5.00;77.20;;;;;;5042037;28;87839;-40
2022/12/19 01:27:15;;;;;;;;;;;5.00;77.10;;;;;;5042111;28;88085;-40
2022/12/19 01:29:41;;;;;;;;;;;5.00;77.20;;;;;;5042264;28;87177;-40
2022/12/19 01:32:06;;;;;;;;;;;5.00;77.20;;;;;;5042707;27;87586;-40
2022/12/19 01:34:32;;;;;;;;;;;4.90;77.20;;;;;;5045402;28;88043;-40
2022/12/19 01:36:57;;;;;;;;;;;5.00;77.20;;;;;;5048804;28;87060;-40
2022/12/19 01:39:23;;;;;;;;;;;4.90;77.10;;;;;;5044865;28;88188;-40
2022/12/19 01:41:48;;;;;;;;;;;4.90;77.10;;;;;;5046027;28;86628;-40
2022/12/19 01:44:13;;;;;;;;;;;4.90;77.00;;;;;;5045825;28;87016;-40
2022/12/19 01:46:42;;;;;;;;;;;4.90;77.20;;;;;;5045307;28;88285;-40
2022/12/19 01:49:34;;;;;;;;;;;4.90;77.20;;;;;;5044991;28;88169;-40
2022/12/19 01:52:02;;;;;;;;;;;4.90;77.10;;;;;;5040604;28;88353;-40
2022/12/19 01:54:33;;;;;;;;;;;4.90;77.10;;;;;;5045178;28;88331;-40
2022/12/19 01:56:59;;;;;;;;;;;4.90;77.20;;;;;;5045347;28;87027;-40
2022/12/19 01:59:27;;;;;;;;;;;4.80;77.10;;;;;;5048127;28;87414;-40
2022/12/19 02:01:57;;;;;;;;;;;4.90;77.20;;;;;;5045153;28;87375;-40
2022/12/19 02:04:25;;;;;;;;;;;4.80;77.10;;;;;;5045471;28;87369;-40
2022/12/19 02:06:54;;;;;;;;;;;4.80;77.10;;;;;;5045120;27;88573;-40
2022/12/19 02:09:23;;;;;;;;;;;4.80;77.00;;;;;;5045208;28;87146;-40
2022/12/19 02:11:48;;;;;;;;;;;4.80;77.10;;;;;;5045085;28;87038;-40
2022/12/19 02:14:14;;;;;;;;;;;4.80;77.10;;;;;;5044039;28;88960;-40
2022/12/19 02:16:42;;;;;;;;;;;4.80;77.10;;;;;;5045220;28;87179;-40
2022/12/19 02:19:18;;;;;;;;;;;4.70;77.20;;;;;;5045266;28;87210;-40
2022/12/19 02:21:57;;;;;;;;;;;4.70;77.20;;;;;;5047827;28;88225;-40
2022/12/19 02:24:29;;;;;;;;;;;4.80;77.20;;;;;;5045522;28;87514;-40
2022/12/19 02:27:12;;;;;;;;;;;4.80;77.10;;;;;;5044519;28;89457;-40
2022/12/19 02:29:40;;;;;;;;;;;4.70;77.10;;;;;;5044944;28;87124;-40
2022/12/19 02:32:15;;;;;;;;;;;4.70;77.70;;;;;;5045706;28;86542;-40
2022/12/19 02:34:48;;;;;;;;;;;4.70;77.10;;;;;;5044360;28;89306;-40
2022/12/19 02:37:19;;;;;;;;;;;4.70;77.30;;;;;;5044426;28;87116;-40
2022/12/19 02:39:48;;;;;;;;;;;4.70;77.70;;;;;;5043798;28;88090;-40
2022/12/19 02:42:19;;;;;;;;;;;4.70;77.30;;;;;;5044114;28;89374;-40
2022/12/19 02:44:47;;;;;;;;;;;4.70;77.10;;;;;;5047237;27;87976;-40
2022/12/19 02:47:13;;;;;;;;;;;4.60;77.10;;;;;;5044405;28;87300;-40
2022/12/19 02:49:39;;;;;;;;;;;4.60;77.20;;;;;;5044840;28;87095;-40
2022/12/19 02:52:08;;;;;;;;;;;4.60;77.20;;;;;;5044498;28;88275;-40
2022/12/19 02:54:33;;;;;;;;;;;4.60;77.20;;;;;;5044357;28;87751;-40
2022/12/19 02:57:08;;;;;;;;;;;4.60;77.30;;;;;;5045369;28;86190;-40
2022/12/19 02:59:33;;;;;;;;;;;4.60;77.20;;;;;;5044670;28;86971;-40
2022/12/19 03:02:07;;;;;;;;;;;4.60;77.20;;;;;;5044117;28;88035;-40
2022/12/19 03:04:32;;;;;;;;;;;4.50;77.40;;;;;;5046565;27;87962;-40
2022/12/19 03:06:58;;;;;;;;;;;4.50;77.90;;;;;;5044142;28;88265;-40
2022/12/19 03:09:23;;;;;;;;;;;4.50;77.20;;;;;;5044415;28;87175;-40
2022/12/19 03:11:57;;;;;;;;;;;4.50;77.20;;;;;;5044285;28;87426;-40
2022/12/19 03:14:22;;;;;;;;;;;4.50;77.30;;;;;;5044262;28;88136;-40
2022/12/19 03:16:48;;;;;;;;;;;4.50;77.40;;;;;;5044354;28;87447;-40
2022/12/19 03:19:14;;;;;;;;;;;4.50;77.50;;;;;;5044265;28;87246;-40
2022/12/19 03:21:42;;;;;;;;;;;4.50;77.40;;;;;;5044220;28;87555;-40
2022/12/19 03:24:09;;;;;;;;;;;4.50;77.20;;;;;;5025922;28;87208;-40
2022/12/19 03:26:37;;;;;;;;;;;4.40;77.40;;;;;;5046615;28;87487;-40
2022/12/19 03:29:06;;;;;;;;;;;4.40;77.50;;;;;;5043506;28;88065;-40
2022/12/19 03:31:32;;;;;;;;;;;4.40;77.60;;;;;;5025519;28;91430;-40
2022/12/19 03:33:59;;;;;;;;;;;4.40;77.50;;;;;;5043749;28;88071;-40
2022/12/19 03:36:30;;;;;;;;;;;4.40;77.30;;;;;;5043919;28;87024;-40
2022/12/19 03:38:58;;;;;;;;;;;4.40;77.40;;;;;;5044093;28;87365;-40
2022/12/19 03:44:10;;;;;;;;;;;4.40;77.30;;;;;;5043765;28;87000;-40
2022/12/19 03:46:38;;;;;;;;;;;4.40;77.30;;;;;;5044090;28;87948;-40
2022/12/19 03:49:04;;;;;;;;;;;4.30;77.40;;;;;;5046320;28;88181;-40
2022/12/19 03:51:34;;;;;;;;;;;4.30;77.60;;;;;;5043788;28;87428;-40
2022/12/19 03:54:07;;;;;;;;;;;4.30;77.70;;;;;;5042961;28;90106;-40
2022/12/19 03:56:37;;;;;;;;;;;4.20;77.60;;;;;;5042568;28;87054;-40
2022/12/19 03:59:05;;;;;;;;;;;4.20;77.60;;;;;;5043971;28;87376;-40
2022/12/19 04:01:32;;;;;;;;;;;4.30;77.70;;;;;;5043139;28;87991;-40
2022/12/19 04:03:57;;;;;;;;;;;4.20;77.60;;;;;;5043608;28;87032;-40
2022/12/19 04:06:24;;;;;;;;;;;4.30;77.40;;;;;;5043387;28;87553;-40
2022/12/19 04:08:49;;;;;;;;;;;4.20;77.50;;;;;;5043068;28;87236;-40
2022/12/19 04:11:18;;;;;;;;;;;4.20;77.50;;;;;;5046836;28;86361;-40
2022/12/19 04:13:48;;;;;;;;;;;4.20;77.60;;;;;;5042887;28;87970;-40
2022/12/19 04:16:28;;;;;;;;;;;4.20;77.50;;;;;;5043179;28;87271;-40
2022/12/19 04:18:59;;;;;;;;;;;4.20;77.60;;;;;;5042902;28;87963;-40
2022/12/19 04:21:29;;;;;;;;;;;4.20;77.60;;;;;;5042814;28;87934;-40
2022/12/19 04:23:57;;;;;;;;;;;4.10;77.50;;;;;;5042713;28;87221;-40
2022/12/19 04:26:23;;;;;;;;;;;4.20;77.60;;;;;;5043050;28;88840;-40
2022/12/19 04:28:53;;;;;;;;;;;4.10;77.50;;;;;;5043041;28;87211;-40
2022/12/19 04:31:19;;;;;;;;;;;4.20;77.50;;;;;;5043109;28;87166;-40
2022/12/19 04:33:44;;;;;;;;;;;4.20;77.50;;;;;;5045853;28;87324;-40
2022/12/19 04:36:10;;;;;;;;;;;4.10;77.50;;;;;;5043578;28;86398;-40
2022/12/19 04:38:36;;;;;;;;;;;4.10;77.50;;;;;;5042970;28;87055;-40
2022/12/19 04:41:01;;;;;;;;;;;4.10;77.50;;;;;;5042214;28;88236;-40
2022/12/19 04:43:27;;;;;;;;;;;4.10;77.40;;;;;;5042215;28;88094;-40
2022/12/19 04:45:52;;;;;;;;;;;4.10;77.40;;;;;;5043123;28;88228;-40
2022/12/19 04:48:18;;;;;;;;;;;4.10;77.20;;;;;;5042753;28;87808;-40
2022/12/19 04:50:43;;;;;;;;;;;4.10;77.40;;;;;;5042921;28;87063;-40
2022/12/19 04:53:09;;;;;;;;;;;4.10;77.50;;;;;;5024256;28;89173;-40
2022/12/19 04:55:35;;;;;;;;;;;4.10;77.50;;;;;;5045615;28;88586;-40
2022/12/19 04:58:03;;;;;;;;;;;4.00;77.40;;;;;;5042571;28;88925;-40
2022/12/19 05:00:28;;;;;;;;;;;4.10;77.50;;;;;;5042745;28;87401;-40
2022/12/19 05:02:54;;;;;;;;;;;4.10;77.50;;;;;;5042718;28;87034;-40
2022/12/19 05:05:19;;;;;;;;;;;4.00;77.50;;;;;;5042123;28;88730;-40
2022/12/19 05:07:45;;;;;;;;;;;4.00;77.70;;;;;;5040817;28;89107;-40
2022/12/19 05:10:11;;;;;;;;;;;4.00;77.60;;;;;;5042398;28;87135;-40
2022/12/19 05:12:37;;;;;;;;;;;4.00;77.50;;;;;;5042735;28;87626;-40
2022/12/19 05:15:02;;;;;;;;;;;4.00;77.60;;;;;;5045194;28;88150;-40
2022/12/19 05:17:28;;;;;;;;;;;3.90;77.60;;;;;;5042648;28;87342;-40
2022/12/19 05:19:53;;;;;;;;;;;3.90;77.60;;;;;;5042170;27;87295;-40
2022/12/19 05:22:19;;;;;;;;;;;3.90;77.70;;;;;;5042354;28;87236;-40
2022/12/19 05:24:44;;;;;;;;;;;3.90;77.60;;;;;;5042835;28;87400;-40
2022/12/19 05:27:10;;;;;;;;;;;3.90;77.50;;;;;;5042179;28;88092;-40
2022/12/19 05:29:35;;;;;;;;;;;3.90;77.70;;;;;;5042303;28;87153;-40
2022/12/19 05:32:01;;;;;;;;;;;3.90;77.70;;;;;;5041968;28;87954;-40
2022/12/19 05:34:26;;;;;;;;;;;3.90;77.80;;;;;;5042018;28;88161;-40
2022/12/19 05:36:52;;;;;;;;;;;3.90;77.70;;;;;;5045191;28;87069;-40
2022/12/19 05:39:17;;;;;;;;;;;3.90;77.90;;;;;;5041343;28;88221;-40
2022/12/19 05:41:43;;;;;;;;;;;3.90;77.60;;;;;;5042031;28;87163;-40
2022/12/19 05:44:09;;;;;;;;;;;3.90;77.70;;;;;;5042317;28;87018;-40
2022/12/19 05:46:34;;;;;;;;;;;3.80;78.40;;;;;;5041917;28;87946;-40
2022/12/19 05:49:00;;;;;;;;;;;3.90;77.80;;;;;;5042549;28;86390;-40
2022/12/19 05:51:25;;;;;;;;;;;3.80;77.60;;;;;;5042098;28;87123;-40
2022/12/19 05:53:51;;;;;;;;;;;3.80;77.80;;;;;;5041463;28;89468;-40
2022/12/19 05:56:18;;;;;;;;;;;3.80;77.80;;;;;;5041491;28;88074;-40
2022/12/19 05:58:44;;;;;;;;;;;3.80;77.80;;;;;;5044415;28;88256;-40
2022/12/19 06:01:11;;;;;;;;;;;3.80;77.80;;;;;;5041973;28;87147;-40
2022/12/19 06:03:36;;;;;;;;;;;3.80;77.70;;;;;;5041983;28;87357;-40
2022/12/19 06:06:02;;;;;;;;;;;3.80;77.80;;;;;;5041463;28;87924;-40
2022/12/19 06:08:28;;;;;;;;;;;3.80;77.80;;;;;;5042003;28;87228;-40
2022/12/19 06:10:53;;;;;;;;;;;3.80;77.80;;;;;;5041831;28;87457;-40
2022/12/19 06:13:19;;;;;;;;;;;3.80;77.80;;;;;;5042097;28;86446;-40
2022/12/19 06:15:44;;;;;;;;;;;3.70;77.70;;;;;;5041493;28;87491;-40
2022/12/19 06:18:10;;;;;;;;;;;3.70;77.80;;;;;;5023650;28;90431;-40
2022/12/19 06:20:35;;;;;;;;;;;3.70;77.70;;;;;;5045771;27;89152;-40
2022/12/19 06:23:01;;;;;;;;;;;3.80;77.80;;;;;;5045040;28;88909;-40
2022/12/19 06:25:27;;;;;;;;;;;3.70;77.80;;;;;;5044929;28;87660;-40
2022/12/19 06:27:52;;;;;;;;;;;3.70;77.70;;;;;;5045140;28;87167;-40
2022/12/19 06:30:18;;;;;;;;;;;3.70;77.80;;;;;;5044995;27;87370;-40
2022/12/19 06:32:43;;;;;;;;;;;3.70;77.70;;;;;;5044746;27;87418;-40
2022/12/19 06:35:09;;;;;;;;;;;3.70;77.80;;;;;;5045019;28;87125;-40
2022/12/19 06:37:34;;;;;;;;;;;3.70;77.80;;;;;;5045488;28;87711;-40
2022/12/19 06:40:00;;;;;;;;;;;3.70;77.90;;;;;;5043979;28;87988;-40
2022/12/19 06:42:25;;;;;;;;;;;3.70;77.90;;;;;;5048375;28;87401;-40
2022/12/19 06:44:51;;;;;;;;;;;3.70;77.90;;;;;;5043872;28;88236;-40
2022/12/19 06:47:17;;;;;;;;;;;3.70;77.80;;;;;;5044734;28;87101;-40
2022/12/19 06:49:43;;;;;;;;;;;3.60;77.80;;;;;;5044917;28;87052;-40
2022/12/19 06:52:12;;;;;;;;;;;3.70;77.80;;;;;;5043921;28;89341;-40
2022/12/19 06:54:37;;;;;;;;;;;3.70;77.80;;;;;;5044877;28;87201;-40
2022/12/19 06:57:03;;;;;;;;;;;3.70;77.80;;;;;;5044464;28;88656;-40
2022/12/19 06:59:28;;;;;;;;;;;3.60;77.80;;;;;;5044335;28;88175;-40
2022/12/19 07:01:55;;;;;;;;;;;3.60;78.00;;;;;;5045082;28;86496;-40
2022/12/19 07:04:23;;;;;;;;;;;3.60;77.90;;;;;;5047153;27;87396;-40
2022/12/19 07:06:49;;;;;;;;;;;3.60;77.80;;;;;;5044186;28;88401;-40
2022/12/19 07:09:15;;;;;;;;;;;3.60;77.90;;;;;;5043464;28;88656;-40
2022/12/19 07:11:40;;;;;;;;;;;3.60;77.90;;;;;;5043891;28;88797;-40
2022/12/19 07:14:06;;;;;;;;;;;3.60;77.80;;;;;;5044354;28;87555;-40
2022/12/19 07:16:31;;;;;;;;;;;3.60;77.80;;;;;;5044366;28;87185;-40
2022/12/19 07:18:57;;;;;;;;;;;3.60;77.70;;;;;;5044010;28;88378;-40
2022/12/19 07:21:23;;;;;;;;;;;3.60;77.80;;;;;;5044229;28;86991;-40
2022/12/19 07:23:49;;;;;;;;;;;3.60;77.90;;;;;;5046758;28;87420;-40
2022/12/19 07:26:14;;;;;;;;;;;3.50;77.90;;;;;;5044839;28;86464;-40
2022/12/19 07:28:43;;;;;;;;;;;3.60;77.90;;;;;;5044304;28;87047;-40
2022/12/19 07:31:09;;;;;;;;;;;3.50;78.00;;;;;;5043289;28;87958;-40
2022/12/19 07:33:34;;;;;;;;;;;3.60;77.90;;;;;;5043514;28;88060;-40
2022/12/19 07:35:59;;;;;;;;;;;3.60;77.90;;;;;;5044191;28;88372;-40
2022/12/19 07:38:25;;;;;;;;;;;3.50;77.90;;;;;;5043376;28;88322;-40
2022/12/19 07:40:50;;;;;;;;;;;3.60;78.00;;;;;;5043567;28;87154;-40
2022/12/19 07:43:16;;;;;;;;;;;3.50;77.80;;;;;;5044083;27;86996;-40
2022/12/19 07:45:41;;;;;;;;;;;3.60;78.00;;;;;;5046501;28;87979;-40
2022/12/19 07:48:07;;;;;;;;;;;3.50;77.90;;;;;;5043939;28;87708;-40
2022/12/19 07:50:33;;;;;;;;;;;3.50;78.00;;;;;;5043637;28;88781;-40
2022/12/19 07:52:59;;;;;;;;;;;3.50;78.00;;;;;;5043722;27;87110;-40
2022/12/19 07:55:25;;;;;;;;;;;3.50;78.00;;;;;;5043559;28;88764;-40
2022/12/19 07:57:50;;;;;;;;;;;3.50;78.60;;;;;;5042643;27;88269;-40
2022/12/19 08:00:16;;;;;;;;;;;3.50;78.00;;;;;;5043537;28;87137;-40
2022/12/19 08:02:42;;;;;;;;;;;3.50;78.00;;;;;;5043435;27;89239;-40
2022/12/19 08:05:07;;;;;;;;;;;3.40;78.00;;;;;;5043137;28;88096;-40
2022/12/19 08:07:33;;;;;;;;;;;3.40;78.10;;;;;;5046012;28;86899;-40
2022/12/19 08:09:59;;;;;;;;;;;3.50;78.20;;;;;;5043278;28;88028;-40
2022/12/19 08:12:25;;;;;;;;;;;3.40;77.90;;;;;;5043493;28;87584;-40
2022/12/19 08:14:51;;;;;;;;;;;3.50;78.10;;;;;;5044050;28;88488;-40
2022/12/19 08:17:17;;;;;;;;;;;3.50;78.10;;;;;;5043162;28;88030;-40
2022/12/19 08:19:42;;;;;;;;;;;3.50;78.10;;;;;;5043093;28;87044;-40
2022/12/19 08:22:08;;;;;;;;;;;3.40;78.00;;;;;;5042637;28;87953;-40
2022/12/19 08:24:33;;;;;;;;;;;3.40;78.10;;;;;;5042731;28;88146;-40
2022/12/19 08:26:59;;;;;;;;;;;3.40;78.30;;;;;;5043455;28;87207;-40
2022/12/19 08:29:24;;;;;;;;;;;3.40;78.10;;;;;;5045842;28;87232;-40
2022/12/19 08:31:50;;;;;;;;;;;3.40;78.10;;;;;;5043413;28;87193;-40
2022/12/19 08:34:15;;;;;;;;;;;3.40;78.20;;;;;;5043297;28;87655;-40
2022/12/19 08:36:41;;;;;;;;;;;3.40;78.10;;;;;;5042694;27;88136;-40
2022/12/19 08:39:06;;;;;;;;;;;3.40;78.20;;;;;;5043589;28;86417;-40
2022/12/19 08:41:32;;;;;;;;;;;3.40;78.10;;;;;;5042557;27;87198;-40
2022/12/19 08:43:57;;;;;;;;;;;3.40;78.10;;;;;;5042164;28;87918;-40
2022/12/19 08:46:23;;;;;;;;;;;3.40;78.10;;;;;;5042642;27;88095;-40
2022/12/19 08:48:49;;;;;;;;;;;3.40;78.10;;;;;;5043104;28;87411;-40
2022/12/19 08:51:15;;;;;;;;;;;3.40;78.10;;;;;;5045425;28;87262;-40
2022/12/19 08:53:42;;;;;;;;;;;3.40;78.30;;;;;;5042402;28;89349;-40
2022/12/19 08:56:13;;;;;;;;;;;3.40;78.20;;;;;;5042494;28;87975;-40
2022/12/19 08:58:39;;;;;;;;;;;3.40;78.20;;;;;;5042845;28;87132;-40
2022/12/19 09:01:07;;;;;;;;;;;3.40;78.20;;;;;;5042707;28;87057;-40
2022/12/19 09:03:33;;;;;;;;;;;3.40;78.40;;;;;;5042551;28;88709;-40
2022/12/19 09:06:00;;;;;;;;;;;3.40;78.10;;;;;;5042513;28;87123;-40
2022/12/19 09:08:27;;;;;;;;;;;3.40;78.20;;;;;;5042454;28;88714;-40
2022/12/19 09:10:57;;;;;;;;;;;3.40;78.20;;;;;;5041465;28;90123;-41
2022/12/19 09:13:22;;;;;;;;;;;3.40;78.10;;;;;;5045485;28;86909;-40
2022/12/19 09:15:47;;;;;;;;;;;3.40;78.10;;;;;;5041953;28;88374;-40
2022/12/19 09:18:13;;;;;;;;;;;3.40;78.10;;;;;;5042668;28;87133;-40
2022/12/19 09:20:38;;;;;;;;;;;3.40;78.10;;;;;;5042754;28;87200;-40
2022/12/19 09:23:04;;;;;;;;;;;3.40;78.20;;;;;;5042003;28;88018;-40
2022/12/19 09:25:29;;;;;;;;;;;3.40;78.30;;;;;;5042654;28;87121;-40
2022/12/19 09:27:55;;;;;;;;;;;3.40;78.20;;;;;;5042994;28;87491;-40
2022/12/19 09:30:20;;;;;;;;;;;3.40;78.10;;;;;;5041740;28;89491;-40
2022/12/19 09:32:46;;;;;;;;;;;3.40;78.20;;;;;;5045313;28;87121;-40
2022/12/19 09:35:11;;;;;;;;;;;3.40;78.10;;;;;;5041284;28;89036;-39
2022/12/19 09:37:37;;;;;;;;;;;3.40;78.10;;;;;;5042318;28;87110;-40
2022/12/19 09:40:02;;;;;;;;;;;3.40;78.10;;;;;;5041866;28;87368;-40
2022/12/19 09:42:28;;;;;;;;;;;3.40;78.20;;;;;;5041998;28;88306;-40
2022/12/19 09:45:10;;;;;;;;;;;3.40;78.10;;;;;;5042492;28;87365;-40
2022/12/19 09:47:38;;;;;;;;;;;3.30;78.30;;;;;;5042427;28;87458;-40
2022/12/19 09:50:09;;;;;;;;;;;3.30;78.40;;;;;;5041429;27;88186;-40
2022/12/19 09:52:37;;;;;;;;;;;3.30;78.40;;;;;;5042655;28;86310;-40
2022/12/19 09:55:23;;;;;;;;;;;3.30;78.30;;;;;;5047382;27;87888;-40
2022/12/19 09:57:51;;;;;;;;;;;3.40;78.40;;;;;;5044617;28;87173;-40
2022/12/19 10:00:18;;;;;;;;;;;3.30;78.50;;;;;;5044788;28;87954;-40
2022/12/19 10:02:43;;;;;;;;;;;3.30;78.30;;;;;;5044892;28;87898;-40
2022/12/19 10:05:28;;;;;;;;;;;3.30;78.30;;;;;;5045637;28;87184;-40
2022/12/19 10:07:54;;;;;;;;;;;3.30;78.30;;;;;;5045286;28;87015;-40
2022/12/19 10:10:26;;;;;;;;;;;3.30;78.50;;;;;;5044716;28;89450;-40
2022/12/19 10:12:57;;;;;;;;;;;3.30;78.50;;;;;;5045588;28;87091;-40
2022/12/19 10:15:23;;;;;;;;;;;3.30;78.50;;;;;;5045052;28;89061;-40
2022/12/19 10:17:56;;;;;;;;;;;3.30;78.70;;;;;;5048136;28;89253;-40
2022/12/19 10:20:22;;;;;;;;;;;3.30;78.80;;;;;;5045460;28;87060;-40
2022/12/19 10:23:23;;;;;;;;;;;3.30;78.60;;;;;;5044890;28;88069;-40
2022/12/19 10:25:49;;;;;;;;;;;3.20;78.70;;;;;;4942147;28;88104;-40
2022/12/19 10:28:17;;;;;;;;;;;3.30;78.70;;;;;;5024014;28;87855;-40
2022/12/19 10:31:06;;;;;;;;;;;3.20;78.50;;;;;;5044769;28;88255;-40
2022/12/19 10:33:38;;;;;;;;;;;3.20;78.70;;;;;;4997173;28;87168;-40
2022/12/19 10:36:07;;;;;;;;;;;3.20;78.80;;;;;;5045022;28;87447;-40
2022/12/19 10:38:36;;;;;;;;;;;3.20;78.80;;;;;;5044258;28;88959;-40
2022/12/19 10:41:16;;;;;;;;;;;3.20;78.80;;;;;;5047495;28;87146;-40
2022/12/19 10:43:41;;;;;;;;;;;3.20;78.80;;;;;;5045020;28;87291;-40
2022/12/19 10:46:28;;;;;;;;;;;3.20;78.70;;;;;;5044842;28;87115;-40
2022/12/19 10:48:53;;;;;;;;;;;3.20;78.90;;;;;;5044109;28;89033;-40
2022/12/19 10:51:23;;;;;;;;;;;3.20;78.80;;;;;;5043786;28;89185;-40
2022/12/19 10:53:53;;;;;;;;;;;3.20;79.00;;;;;;5044703;28;87133;-40
2022/12/19 10:56:23;;;;;;;;;;;3.20;78.70;;;;;;5044825;28;87290;-40
2022/12/19 10:58:50;;;;;;;;;;;3.20;78.90;;;;;;5044417;28;88149;-40
2022/12/19 11:01:15;;;;;;;;;;;3.20;78.90;;;;;;5044323;27;88104;-40
2022/12/19 11:03:46;;;;;;;;;;;3.20;79.00;;;;;;5047017;28;86884;-40
2022/12/19 11:06:51;;;;;;;;;;;3.20;78.90;;;;;;5043491;27;87152;-40
2022/12/19 11:09:21;;;;;;;;;;;3.20;78.70;;;;;;4943083;28;87495;-40
2022/12/19 11:11:47;;;;;;;;;;;3.20;78.80;;;;;;4942492;28;89329;-40
2022/12/19 11:14:23;;;;;;;;;;;3.20;79.10;;;;;;4992391;28;87180;-40
2022/12/19 11:16:49;;;;;;;;;;;3.20;79.20;;;;;;5043879;28;87833;-40
2022/12/19 11:19:35;;;;;;;;;;;3.20;79.00;;;;;;5043995;28;88185;-40
2022/12/19 11:22:27;;;;;;;;;;;3.10;79.10;;;;;;5043202;28;86989;-40
2022/12/19 11:24:53;;;;;;;;;;;3.20;79.10;;;;;;5041808;27;87162;-40
2022/12/19 11:27:35;;;;;;;;;;;3.10;79.20;;;;;;5044197;28;87253;-40
2022/12/19 11:30:05;;;;;;;;;;;3.10;79.10;;;;;;5043854;28;88771;-40
2022/12/19 11:32:32;;;;;;;;;;;3.10;80.00;;;;;;5043455;28;88151;-40
2022/12/19 11:35:01;;;;;;;;;;;3.10;79.40;;;;;;5044644;28;86389;-40
2022/12/19 11:37:34;;;;;;;;;;;3.10;79.30;;;;;;5044084;28;86897;-40
2022/12/19 11:40:09;;;;;;;;;;;3.10;79.30;;;;;;5043612;28;87292;-40
2022/12/19 11:42:38;;;;;;;;;;;3.10;79.40;;;;;;5043056;28;87966;-40
2022/12/19 11:45:12;;;;;;;;;;;3.10;79.50;;;;;;5043811;28;88118;-40
2022/12/19 11:47:44;;;;;;;;;;;3.10;79.30;;;;;;5046406;28;88134;-40
2022/12/19 11:50:14;;;;;;;;;;;3.10;79.30;;;;;;5043894;28;87404;-40
2022/12/19 11:52:42;;;;;;;;;;;3.10;79.30;;;;;;5043173;28;89614;-40
2022/12/19 11:55:43;;;;;;;;;;;3.10;79.40;;;;;;5043756;28;87221;-40
2022/12/19 11:58:10;;;;;;;;;;;3.10;79.40;;;;;;4941643;28;88578;-40
2022/12/19 12:00:36;;;;;;;;;;;3.10;79.30;;;;;;5022786;28;89002;-40
2022/12/19 12:03:13;;;;;;;;;;;3.10;79.30;;;;;;5043756;28;87114;-40
2022/12/19 12:05:43;;;;;;;;;;;3.10;79.40;;;;;;5043707;28;87011;-40
2022/12/19 12:08:33;;;;;;;;;;;3.10;79.90;;;;;;5041953;27;90586;-40
2022/12/19 12:10:59;;;;;;;;;;;3.10;79.30;;;;;;5046624;28;87020;-40
2022/12/19 12:13:45;;;;;;;;;;;3.10;79.30;;;;;;5043304;28;87984;-40
2022/12/19 12:16:12;;;;;;;;;;;3.10;79.50;;;;;;5042616;28;87163;-40
2022/12/19 12:18:53;;;;;;;;;;;3.10;79.30;;;;;;5042210;28;87566;-40
2022/12/19 12:21:21;;;;;;;;;;;3.10;79.30;;;;;;5042612;28;89095;-40
2022/12/19 12:24:05;;;;;;;;;;;3.10;79.50;;;;;;5043414;28;87646;-40
2022/12/19 12:26:31;;;;;;;;;;;3.10;79.50;;;;;;5043973;28;86536;-40
2022/12/19 12:28:56;;;;;;;;;;;3.10;79.60;;;;;;5042812;28;88172;-40
2022/12/19 12:31:45;;;;;;;;;;;3.10;79.60;;;;;;5043547;28;87121;-40
2022/12/19 12:34:29;;;;;;;;;;;3.10;79.40;;;;;;5026826;28;89585;-40
2022/12/19 12:37:13;;;;;;;;;;;3.10;79.30;;;;;;5043140;28;87251;-40
2022/12/19 12:39:45;;;;;;;;;;;3.10;79.30;;;;;;5024114;28;90413;-40
2022/12/19 12:42:23;;;;;;;;;;;3.10;79.40;;;;;;5042694;28;88168;-40
2022/12/19 12:44:51;;;;;;;;;;;3.10;79.40;;;;;;5042987;28;87140;-40
2022/12/19 12:47:19;;;;;;;;;;;3.10;79.40;;;;;;5042650;28;89247;-40
2022/12/19 12:49:44;;;;;;;;;;;3.10;79.70;;;;;;5042308;28;89605;-40
2022/12/19 12:52:13;;;;;;;;;;;3.10;79.40;;;;;;5043533;28;86396;-40
2022/12/19 12:54:41;;;;;;;;;;;3.10;79.50;;;;;;5042626;28;87177;-40
2022/12/19 12:57:15;;;;;;;;;;;3.10;79.50;;;;;;5045512;28;88101;-40
2022/12/19 12:59:43;;;;;;;;;;;3.10;79.50;;;;;;5042193;28;87987;-40
2022/12/19 13:02:35;;;;;;;;;;;3.10;79.70;;;;;;5042536;28;87962;-40
2022/12/19 13:05:14;;;;;;;;;;;3.10;79.60;;;;;;5037491;28;87080;-40
2022/12/19 13:07:39;;;;;;;;;;;3.10;79.50;;;;;;5042639;28;87102;-40
2022/12/19 13:10:13;;;;;;;;;;;3.10;79.70;;;;;;5042574;28;87889;-40
2022/12/19 13:13:05;;;;;;;;;;;3.10;79.60;;;;;;5042649;28;86996;-40
2022/12/19 13:15:36;;;;;;;;;;;3.10;79.50;;;;;;5037315;28;87383;-40
2022/12/19 13:18:27;;;;;;;;;;;3.10;79.60;;;;;;5042673;28;88533;-40
2022/12/19 13:20:53;;;;;;;;;;;3.10;79.70;;;;;;5045393;28;87046;-40
2022/12/19 13:23:18;;;;;;;;;;;3.00;79.60;;;;;;5041946;28;88173;-40
2022/12/19 13:25:44;;;;;;;;;;;3.00;79.60;;;;;;5041820;28;88059;-40
2022/12/19 13:28:14;;;;;;;;;;;3.00;79.60;;;;;;5042577;27;88118;-40
2022/12/19 13:30:58;;;;;;;;;;;3.00;79.90;;;;;;5045697;28;88225;-40
2022/12/19 13:33:43;;;;;;;;;;;3.00;79.80;;;;;;5046146;28;87234;-40
2022/12/19 13:36:27;;;;;;;;;;;3.00;79.90;;;;;;5046122;28;87649;-40
2022/12/19 13:38:52;;;;;;;;;;;3.00;79.70;;;;;;5045539;28;87941;-40
2022/12/19 13:44:16;;;;;;;;;;;3.00;79.90;;;;;;5045777;27;86536;-40
2022/12/19 13:46:43;;;;;;;;;;;3.00;79.90;;;;;;5045627;28;87153;-40
2022/12/19 13:49:08;;;;;;;;;;;3.00;79.90;;;;;;5045849;28;87200;-40
2022/12/19 13:51:53;;;;;;;;;;;3.00;79.90;;;;;;5044696;28;88959;-40
2022/12/19 13:54:21;;;;;;;;;;;3.00;79.70;;;;;;5045725;28;87095;-40
2022/12/19 13:56:47;;;;;;;;;;;3.00;79.80;;;;;;5045133;27;87169;-40
2022/12/19 13:59:13;;;;;;;;;;;3.10;79.80;;;;;;5045408;28;88422;-40
2022/12/19 14:01:39;;;;;;;;;;;3.10;79.80;;;;;;5045247;28;87125;-40
2022/12/19 14:04:07;;;;;;;;;;;3.00;79.80;;;;;;5047898;28;88611;-40
2022/12/19 14:06:41;;;;;;;;;;;3.10;79.70;;;;;;5045030;28;87067;-40
2022/12/19 14:09:15;;;;;;;;;;;3.10;79.80;;;;;;5045556;28;87414;-40
2022/12/19 14:11:42;;;;;;;;;;;3.10;80.00;;;;;;5045259;28;88470;-40
2022/12/19 14:17:04;;;;;;;;;;;3.10;79.80;;;;;;5044985;28;88042;-40
2022/12/19 14:19:36;;;;;;;;;;;3.10;79.80;;;;;;5044997;28;88589;-40
2022/12/19 14:22:17;;;;;;;;;;;3.10;79.70;;;;;;5045107;28;87032;-40
2022/12/19 14:25:01;;;;;;;;;;;3.00;79.80;;;;;;5045300;28;88088;-40
2022/12/19 14:27:27;;;;;;;;;;;3.10;79.70;;;;;;5047500;28;88147;-40
2022/12/19 14:29:53;;;;;;;;;;;3.00;79.70;;;;;;5045193;28;87372;-40
2022/12/19 14:32:19;;;;;;;;;;;3.10;80.00;;;;;;5044638;28;87777;-40
2022/12/19 14:34:46;;;;;;;;;;;3.10;79.70;;;;;;5045568;28;86411;-40
2022/12/19 14:37:25;;;;;;;;;;;3.00;79.90;;;;;;5045056;28;87052;-40
2022/12/19 14:39:51;;;;;;;;;;;3.00;79.80;;;;;;5043721;28;88072;-40
2022/12/19 14:45:00;;;;;;;;;;;3.00;80.00;;;;;;5045179;28;88101;-40
2022/12/19 14:47:34;;;;;;;;;;;3.00;80.00;;;;;;5044574;28;87250;-40
2022/12/19 14:50:00;;;;;;;;;;;3.00;80.00;;;;;;5047813;27;87129;-40
2022/12/19 14:52:31;;;;;;;;;;;3.00;80.00;;;;;;5044425;28;88098;-40
2022/12/19 14:55:13;;;;;;;;;;;3.00;80.00;;;;;;5044859;28;87140;-40